Time;durP1;ratioP1;P1;durP2;ratioP2;P2;SDS_P1;SDS_P2;PMS_P1;PMS_P2;Temp;Humidity;BMP_temperature;BMP_pressure;BME280_temperature;BME280_humidity;BME280_pressure;Samples;Min_cycle;Max_cycle;Signal;HPM_P1;HPM_P2
2022/04/16 00:02:04;;;;;;;11.45;7.90;;;;;;;10.74;99.34;103119.44;4969137;28;20039;-73
2022/04/16 00:04:30;;;;;;;13.02;8.27;;;;;;;10.72;98.89;103121.09;4974166;28;20086;-72
2022/04/16 00:06:56;;;;;;;13.05;8.93;;;;;;;10.60;98.91;103116.97;4971844;28;20034;-72
2022/04/16 00:09:22;;;;;;;13.50;8.95;;;;;;;10.55;99.89;103125.47;4973003;28;20027;-72
2022/04/16 00:11:48;;;;;;;16.13;8.93;;;;;;;10.60;99.53;103121.34;4973590;28;20038;-72
2022/04/16 00:14:15;;;;;;;16.10;9.00;;;;;;;10.65;99.97;103118.94;4973990;28;20559;-72
2022/04/16 00:16:40;;;;;;;15.82;8.57;;;;;;;10.66;99.70;103123.41;4971596;28;20027;-72
2022/04/16 00:19:06;;;;;;;11.63;8.20;;;;;;;10.60;99.52;103118.72;4973839;28;20086;-72
2022/04/16 00:21:31;;;;;;;18.55;9.25;;;;;;;10.66;99.81;103126.03;4985522;28;20054;-72
2022/04/16 00:23:57;;;;;;;13.30;9.15;;;;;;;10.60;98.77;103129.25;5012986;28;20101;-72
2022/04/16 00:26:23;;;;;;;11.15;8.98;;;;;;;10.56;100.00;103124.66;5012074;28;20030;-72
2022/04/16 00:28:50;;;;;;;13.70;9.40;;;;;;;10.57;100.00;103126.47;5012955;28;20060;-72
2022/04/16 00:31:15;;;;;;;16.00;10.80;;;;;;;10.60;99.92;103131.88;5006086;28;20458;-73
2022/04/16 00:33:40;;;;;;;11.82;9.20;;;;;;;10.68;100.00;103129.66;5012760;28;20054;-72
2022/04/16 00:36:06;;;;;;;13.30;9.13;;;;;;;10.60;99.88;103121.34;5012463;28;20104;-73
2022/04/16 00:38:32;;;;;;;14.93;9.18;;;;;;;10.53;100.00;103121.84;5011788;28;20036;-73
2022/04/16 00:41:00;;;;;;;13.38;9.35;;;;;;;10.49;100.00;103122.53;5009100;28;20438;-73
2022/04/16 00:43:29;;;;;;;11.52;9.70;;;;;;;10.53;100.00;103129.75;5012848;28;20493;-73
2022/04/16 00:45:55;;;;;;;13.43;10.00;;;;;;;10.51;100.00;103136.66;5012434;28;20069;-72
2022/04/16 00:48:22;;;;;;;17.95;10.27;;;;;;;10.48;100.00;103128.59;5010045;28;20424;-73
2022/04/16 00:50:50;;;;;;;13.02;9.43;;;;;;;10.49;100.00;103130.41;4995273;28;20030;-73
2022/04/16 00:53:17;;;;;;;14.95;10.40;;;;;;;10.41;100.00;103130.88;5012012;28;20623;-72
2022/04/16 00:55:42;;;;;;;15.40;9.55;;;;;;;10.46;100.00;103131.16;5012580;28;20022;-73
2022/04/16 00:58:08;;;;;;;16.73;10.38;;;;;;;10.52;99.28;103127.94;5010380;28;20034;-73
2022/04/16 01:00:33;;;;;;;12.85;10.23;;;;;;;10.51;99.04;103132.28;5011702;28;20470;-73
2022/04/16 01:02:59;;;;;;;13.27;9.82;;;;;;;10.35;99.82;103127.94;4994991;28;20058;-72
2022/04/16 01:05:24;;;;;;;17.38;10.57;;;;;;;10.42;99.30;103123.91;5010694;28;20030;-73
2022/04/16 01:07:53;;;;;;;12.40;9.80;;;;;;;10.43;98.95;103134.53;5007171;28;20058;-73
2022/04/16 01:10:20;;;;;;;14.35;10.07;;;;;;;10.42;98.54;103130.06;5007071;28;20031;-72
2022/04/16 01:12:45;;;;;;;15.88;11.52;;;;;;;10.45;98.90;103126.69;4997813;28;20045;-72
2022/04/16 01:15:13;;;;;;;13.38;10.15;;;;;;;10.43;99.08;103129.25;5013423;28;20406;-72
2022/04/16 01:17:38;;;;;;;15.10;10.68;;;;;;;10.34;98.62;103133.09;5015998;28;20038;-72
2022/04/16 01:20:04;;;;;;;16.40;10.10;;;;;;;10.20;98.34;103124.41;5011861;28;20051;-73
2022/04/16 01:22:30;;;;;;;12.10;10.48;;;;;;;10.17;99.20;103125.16;5004633;28;20056;-73
2022/04/16 01:24:55;;;;;;;13.48;10.15;;;;;;;10.20;98.60;103129.69;5013881;28;20030;-72
2022/04/16 01:27:21;;;;;;;14.82;11.55;;;;;;;10.16;98.59;103127.69;5009800;28;20025;-73
2022/04/16 01:29:48;;;;;;;15.65;10.88;;;;;;;10.23;99.10;103129.88;5015241;28;20026;-73
2022/04/16 01:32:13;;;;;;;15.07;10.63;;;;;;;10.26;98.60;103133.56;5015503;28;20030;-73
2022/04/16 01:34:40;;;;;;;15.15;11.18;;;;;;;10.30;99.69;103132.00;5013579;28;20489;-73
2022/04/16 01:37:05;;;;;;;13.75;10.45;;;;;;;10.17;98.30;103125.16;5015169;28;20168;-73
2022/04/16 01:39:32;;;;;;;14.23;10.75;;;;;;;10.17;98.23;103127.78;5015727;28;20116;-73
2022/04/16 01:41:58;;;;;;;13.20;10.85;;;;;;;10.10;99.04;103129.16;4995257;28;20049;-73
2022/04/16 01:44:23;;;;;;;14.68;10.68;;;;;;;10.06;98.51;103124.56;5015339;28;20037;-73
2022/04/16 01:46:48;;;;;;;15.10;10.90;;;;;;;10.12;98.80;103122.28;5013650;28;20020;-73
2022/04/16 01:49:14;;;;;;;13.57;10.48;;;;;;;10.10;98.57;103118.63;5015432;28;20026;-73
2022/04/16 01:51:39;;;;;;;13.38;10.15;;;;;;;9.98;99.26;103117.97;5000763;28;20111;-73
2022/04/16 01:54:04;;;;;;;14.23;10.50;;;;;;;9.90;100.00;103119.25;5015194;28;20030;-73
2022/04/16 01:56:30;;;;;;;14.93;10.43;;;;;;;9.85;99.93;103118.09;5010249;28;20089;-73
2022/04/16 01:58:55;;;;;;;15.30;10.77;;;;;;;9.78;100.00;103115.13;5008659;28;20041;-73
2022/04/16 02:01:22;;;;;;;14.90;11.52;;;;;;;9.69;100.00;103114.63;5014582;28;20030;-73
2022/04/16 02:03:47;;;;;;;14.63;10.73;;;;;;;9.68;100.00;103125.03;5005170;28;20483;-73
2022/04/16 02:06:13;;;;;;;15.80;11.32;;;;;;;9.55;100.00;103128.69;4996375;28;20030;-73
2022/04/16 02:08:39;;;;;;;14.68;12.05;;;;;;;9.55;100.00;103121.72;4997117;28;20029;-73
2022/04/16 02:11:04;;;;;;;14.05;11.07;;;;;;;9.54;100.00;103127.78;5014892;28;20030;-73
2022/04/16 02:13:30;;;;;;;14.38;10.80;;;;;;;9.44;100.00;103130.69;4997665;28;20029;-73
2022/04/16 02:15:56;;;;;;;15.55;11.70;;;;;;;9.37;100.00;103137.34;5013720;28;20037;-73
2022/04/16 02:18:22;;;;;;;16.02;10.88;;;;;;;9.41;100.00;103135.78;5011856;28;20026;-73
2022/04/16 02:20:47;;;;;;;16.70;11.95;;;;;;;9.34;100.00;103145.00;4999248;28;20033;-73
2022/04/16 02:23:13;;;;;;;19.25;11.65;;;;;;;9.25;100.00;103137.50;5014143;28;20528;-73
2022/04/16 02:25:43;;;;;;;16.10;11.07;;;;;;;9.21;100.00;103147.72;5014681;28;20060;-73
2022/04/16 02:28:09;;;;;;;16.23;12.05;;;;;;;9.18;100.00;103139.69;5014679;28;20021;-73
2022/04/16 02:30:35;;;;;;;13.95;11.68;;;;;;;9.13;100.00;103141.13;5012011;28;20033;-73
2022/04/16 02:33:00;;;;;;;18.10;12.10;;;;;;;9.09;100.00;103140.94;5014659;28;20101;-72
2022/04/16 02:35:25;;;;;;;22.42;11.70;;;;;;;9.01;100.00;103151.81;5003464;28;20116;-73
2022/04/16 02:37:51;;;;;;;15.30;11.10;;;;;;;9.02;100.00;103144.03;5014635;28;20409;-73
2022/04/16 02:40:16;;;;;;;14.95;11.65;;;;;;;8.99;100.00;103156.94;5014952;28;20513;-73
2022/04/16 02:42:43;;;;;;;15.90;10.70;;;;;;;9.01;100.00;103160.59;5012841;28;20026;-73
2022/04/16 02:47:58;;;;;;;18.40;12.88;;;;;;;8.80;100.00;103159.28;5011679;28;20104;-73
2022/04/16 02:50:25;;;;;;;19.10;11.85;;;;;;;8.80;100.00;103167.16;4999733;28;20037;-73
2022/04/16 02:52:51;;;;;;;15.75;11.38;;;;;;;8.72;100.00;103164.97;5014412;28;20018;-73
2022/04/16 02:55:16;;;;;;;18.45;12.80;;;;;;;8.76;100.00;103164.34;5013150;28;20057;-73
2022/04/16 02:57:45;;;;;;;15.70;12.75;;;;;;;8.71;100.00;103168.41;5014396;28;20060;-73
2022/04/16 03:00:13;;;;;;;24.38;13.07;;;;;;;8.88;100.00;103165.91;4995551;28;20037;-73
2022/04/16 03:02:39;;;;;;;17.73;13.00;;;;;;;8.78;100.00;103173.22;5013846;28;20132;-73
2022/04/16 03:05:06;;;;;;;18.58;12.75;;;;;;;8.76;100.00;103172.22;4992467;28;20030;-73
2022/04/16 03:07:32;;;;;;;18.50;13.35;;;;;;;8.66;100.00;103171.56;5013946;28;20036;-73
2022/04/16 03:09:57;;;;;;;18.40;13.52;;;;;;;8.59;100.00;103173.78;5012859;28;20043;-72
2022/04/16 03:12:23;;;;;;;17.17;13.30;;;;;;;8.59;100.00;103171.16;5013917;28;20478;-73
2022/04/16 03:17:32;;;;;;;18.15;12.52;;;;;;;8.47;100.00;103167.78;5005031;28;20045;-73
2022/04/16 03:20:07;;;;;;;18.77;13.85;;;;;;;8.63;100.00;103160.84;5012451;28;20030;-73
2022/04/16 03:22:33;;;;;;;17.15;13.07;;;;;;;8.60;100.00;103164.22;5012814;28;20137;-73
2022/04/16 03:25:07;;;;;;;20.42;13.80;;;;;;;8.44;100.00;103168.47;5013601;28;20025;-73
2022/04/16 03:27:32;;;;;;;16.60;13.05;;;;;;;8.43;100.00;103163.13;5013062;28;20032;-73
2022/04/16 03:29:58;;;;;;;23.13;13.93;;;;;;;8.44;100.00;103162.31;5012040;28;20436;-73
2022/04/16 03:32:23;;;;;;;18.17;13.15;;;;;;;8.34;100.00;103171.34;4995557;28;20041;-73
2022/04/16 03:34:48;;;;;;;20.08;14.45;;;;;;;8.33;100.00;103166.88;4995351;28;20148;-73
2022/04/16 03:37:13;;;;;;;16.48;12.77;;;;;;;8.44;100.00;103168.47;5013598;28;20075;-73
2022/04/16 03:39:39;;;;;;;20.48;14.88;;;;;;;8.50;100.00;103167.06;4995345;28;20037;-74
2022/04/16 03:42:04;;;;;;;21.27;13.98;;;;;;;8.48;100.00;103173.94;5012739;28;20022;-73
2022/04/16 03:44:30;;;;;;;20.98;14.82;;;;;;;8.34;100.00;103171.34;5012926;28;20038;-72
2022/04/16 03:46:55;;;;;;;18.48;14.35;;;;;;;8.18;100.00;103173.75;5013285;28;20022;-73
2022/04/16 03:49:21;;;;;;;18.23;14.30;;;;;;;8.31;100.00;103181.59;4997269;28;20537;-73
2022/04/16 03:51:46;;;;;;;17.98;14.75;;;;;;;8.25;100.00;103186.47;5013329;28;20030;-73
2022/04/16 04:02:23;;;;;;;20.27;14.43;;;;;;;7.97;100.00;103189.94;5007391;28;20091;-72
2022/04/16 04:04:49;;;;;;;20.42;15.27;;;;;;;8.07;100.00;103194.97;5012711;28;20556;-72
2022/04/16 04:07:15;;;;;;;21.35;14.70;;;;;;;7.97;100.00;103191.66;5011905;28;20064;-73
2022/04/16 04:09:40;;;;;;;21.63;15.98;;;;;;;7.97;100.00;103199.53;4995734;28;20026;-73
2022/04/16 04:12:09;;;;;;;19.40;14.73;;;;;;;8.06;100.00;103190.53;5011745;28;20049;-72
2022/04/16 04:14:37;;;;;;;25.60;16.88;;;;;;;7.94;100.00;103197.59;5013240;28;20026;-72
2022/04/16 04:17:03;;;;;;;22.85;15.85;;;;;;;8.01;100.00;103196.28;4994796;28;20033;-73
2022/04/16 04:19:28;;;;;;;22.55;16.52;;;;;;;8.05;100.00;103193.97;5011849;28;20393;-73
2022/04/16 04:21:53;;;;;;;22.52;15.63;;;;;;;7.92;100.00;103194.88;5012522;28;20045;-73
2022/04/16 04:24:19;;;;;;;28.08;17.45;;;;;;;7.91;100.00;103200.94;4995089;28;20465;-73
2022/04/16 04:26:44;;;;;;;22.58;16.50;;;;;;;7.89;100.00;103204.25;5013212;28;20025;-73
2022/04/16 04:29:09;;;;;;;22.42;16.55;;;;;;;7.85;100.00;103202.25;5011078;28;20486;-73
2022/04/16 04:31:35;;;;;;;22.92;15.70;;;;;;;7.70;100.00;103210.00;5010103;28;20124;-73
2022/04/16 04:34:00;;;;;;;23.17;16.67;;;;;;;7.86;100.00;103206.69;5012320;28;20493;-72
2022/04/16 04:36:25;;;;;;;25.80;17.75;;;;;;;7.74;100.00;103207.66;5011751;28;20092;-72
2022/04/16 04:38:50;;;;;;;24.27;16.75;;;;;;;7.66;100.00;103214.13;5012205;28;20022;-72
2022/04/16 04:41:16;;;;;;;25.38;17.33;;;;;;;7.75;100.00;103224.31;5011793;28;20553;-72
2022/04/16 04:43:41;;;;;;;26.70;16.80;;;;;;;7.83;100.00;103219.59;5010062;28;20061;-73
2022/04/16 04:46:06;;;;;;;27.20;17.55;;;;;;;7.74;100.00;103223.38;5014824;28;20045;-72
2022/04/16 04:48:32;;;;;;;22.92;16.15;;;;;;;7.68;100.00;103223.00;5013895;28;20045;-72
2022/04/16 04:50:57;;;;;;;22.88;16.65;;;;;;;7.65;100.00;103228.03;5015781;28;20088;-73
2022/04/16 04:53:22;;;;;;;25.10;16.42;;;;;;;7.69;100.00;103223.91;4998451;28;20034;-73
2022/04/16 04:55:48;;;;;;;24.95;16.38;;;;;;;7.74;100.00;103219.88;5016814;28;20022;-73
2022/04/16 04:58:13;;;;;;;23.60;17.08;;;;;;;7.73;100.00;103210.19;5014397;28;20034;-73
2022/04/16 05:00:38;;;;;;;22.98;16.50;;;;;;;7.65;100.00;103217.56;5014658;28;20049;-73
2022/04/16 05:03:04;;;;;;;24.15;16.80;;;;;;;7.66;100.00;103219.34;5016146;28;20466;-73
2022/04/16 05:05:29;;;;;;;28.83;16.67;;;;;;;7.69;100.00;103222.22;5016211;28;20057;-73
2022/04/16 05:07:54;;;;;;;26.45;17.25;;;;;;;7.67;100.00;103225.53;5014947;28;20389;-73
2022/04/16 05:10:20;;;;;;;23.05;16.40;;;;;;;7.50;100.00;103227.00;5014090;28;20470;-73
2022/04/16 05:12:45;;;;;;;29.20;18.33;;;;;;;7.46;100.00;103230.22;5015144;28;20038;-73
2022/04/16 05:15:10;;;;;;;31.08;19.58;;;;;;;7.52;100.00;103236.78;5016274;28;20032;-73
2022/04/16 05:17:40;;;;;;;26.45;18.88;;;;;;;7.61;100.00;103241.75;5015019;28;20061;-73
2022/04/16 05:20:07;;;;;;;29.08;17.23;;;;;;;7.67;100.00;103242.16;5013216;28;20069;-73
2022/04/16 05:22:32;;;;;;;26.48;17.58;;;;;;;7.73;100.00;103246.88;5015292;28;20049;-73
2022/04/16 05:24:58;;;;;;;24.92;16.88;;;;;;;7.72;100.00;103255.56;5016163;28;20030;-73
2022/04/16 05:27:23;;;;;;;29.67;17.60;;;;;;;7.80;100.00;103258.69;4997220;28;20113;-72
2022/04/16 05:29:56;;;;;;;27.30;18.02;;;;;;;7.76;100.00;103254.97;5014666;28;20024;-73
2022/04/16 05:32:21;;;;;;;28.75;17.58;;;;;;;7.80;100.00;103256.06;5013517;28;20034;-73
2022/04/16 05:34:47;;;;;;;30.08;16.98;;;;;;;7.84;100.00;103265.94;5015608;28;20398;-73
2022/04/16 05:37:12;;;;;;;23.77;16.83;;;;;;;7.82;100.00;103258.00;5015389;28;20034;-73
2022/04/16 05:39:38;;;;;;;24.92;16.73;;;;;;;7.80;100.00;103266.56;5014635;28;20061;-73
2022/04/16 05:42:04;;;;;;;24.58;16.95;;;;;;;7.65;100.00;103264.72;5014396;28;20087;-73
2022/04/16 05:44:29;;;;;;;25.20;16.90;;;;;;;7.59;100.00;103269.53;5014144;28;20065;-73
2022/04/16 05:46:54;;;;;;;24.48;16.73;;;;;;;7.76;100.00;103268.97;5013250;28;20057;-73
2022/04/16 05:49:20;;;;;;;27.38;17.67;;;;;;;7.80;100.00;103269.16;5013692;28;20018;-73
2022/04/16 05:51:45;;;;;;;30.65;19.35;;;;;;;7.83;100.00;103269.41;5014985;28;20036;-73
2022/04/16 05:54:10;;;;;;;23.48;17.60;;;;;;;7.90;100.00;103267.28;5013203;28;20487;-72
2022/04/16 05:56:36;;;;;;;25.52;16.38;;;;;;;7.85;100.00;103273.00;5013896;28;20555;-73
2022/04/16 05:59:01;;;;;;;28.27;18.20;;;;;;;7.89;100.00;103265.44;5011356;28;20033;-72
2022/04/16 06:01:26;;;;;;;28.23;18.08;;;;;;;7.83;100.00;103275.53;5013739;28;20025;-73
2022/04/16 06:03:52;;;;;;;27.23;18.17;;;;;;;7.86;100.00;103274.84;5013340;28;20462;-73
2022/04/16 06:06:17;;;;;;;25.90;17.23;;;;;;;7.87;100.00;103282.81;5015339;28;21648;-73
2022/04/16 06:08:43;;;;;;;25.33;18.10;;;;;;;7.90;100.00;103276.84;5013369;28;20556;-73
2022/04/16 06:11:08;;;;;;;28.35;18.98;;;;;;;7.92;100.00;103280.47;4997425;28;20108;-73
2022/04/16 06:13:34;;;;;;;26.17;17.42;;;;;;;8.04;100.00;103285.63;4991248;28;20022;-73
2022/04/16 06:15:59;;;;;;;26.38;17.92;;;;;;;7.99;100.00;103284.41;4997142;28;20030;-73
2022/04/16 06:18:26;;;;;;;25.80;17.63;;;;;;;8.04;100.00;103283.91;5014831;28;20064;-72
2022/04/16 06:20:51;;;;;;;29.15;19.17;;;;;;;7.98;100.00;103299.25;5015182;28;20119;-74
2022/04/16 06:23:19;;;;;;;25.63;17.75;;;;;;;8.06;100.00;103298.03;5013461;28;20077;-74
2022/04/16 06:25:45;;;;;;;29.90;19.50;;;;;;;8.18;100.00;103294.41;5010213;28;20063;-74
2022/04/16 06:28:10;;;;;;;25.75;17.92;;;;;;;8.25;100.00;103296.66;4997776;28;20385;-74
2022/04/16 06:30:35;;;;;;;31.13;18.23;;;;;;;8.35;100.00;103308.66;5012464;28;20061;-73
2022/04/16 06:33:01;;;;;;;27.50;18.63;;;;;;;8.39;100.00;103308.03;5013235;28;20378;-74
2022/04/16 06:35:26;;;;;;;27.45;18.42;;;;;;;8.41;100.00;103307.34;5013822;28;20037;-74
2022/04/16 06:37:52;;;;;;;25.20;17.85;;;;;;;8.42;100.00;103306.53;4995537;28;20030;-74
2022/04/16 06:40:17;;;;;;;31.17;18.85;;;;;;;8.51;100.00;103310.59;5013688;28;20073;-71
2022/04/16 06:42:43;;;;;;;26.13;19.30;;;;;;;8.52;100.00;103307.13;5014413;28;20054;-74
2022/04/16 06:45:10;;;;;;;30.75;20.40;;;;;;;8.56;100.00;103309.16;5014906;28;20049;-73
2022/04/16 06:47:36;;;;;;;32.65;20.02;;;;;;;8.64;100.00;103307.97;5014045;28;20054;-73
2022/04/16 06:50:06;;;;;;;28.42;19.38;;;;;;;8.70;100.00;103315.31;5014232;28;20546;-74
2022/04/16 06:52:32;;;;;;;32.63;19.88;;;;;;;8.71;100.00;103315.41;5011248;28;20061;-72
2022/04/16 06:54:58;;;;;;;29.73;20.02;;;;;;;8.74;100.00;103315.59;5011556;28;20469;-72
2022/04/16 06:57:26;;;;;;;33.28;20.35;;;;;;;8.76;100.00;103319.25;5013717;28;20034;-72
2022/04/16 06:59:52;;;;;;;27.60;19.25;;;;;;;8.87;100.00;103316.38;5013782;28;20029;-72
2022/04/16 07:02:18;;;;;;;29.50;20.27;;;;;;;8.93;100.00;103317.66;5007226;28;20030;-71
2022/04/16 07:04:43;;;;;;;32.25;20.23;;;;;;;8.97;100.00;103320.47;5010532;28;20110;-72
2022/04/16 07:07:09;;;;;;;27.52;18.98;;;;;;;9.03;100.00;103313.00;5014340;28;20398;-71
2022/04/16 07:09:38;;;;;;;30.42;20.00;;;;;;;9.06;100.00;103319.38;5011392;28;20056;-73
2022/04/16 07:12:06;;;;;;;32.83;19.33;;;;;;;9.11;100.00;103317.00;5011446;28;20080;-72
2022/04/16 07:14:31;;;;;;;31.92;20.35;;;;;;;9.21;100.00;103327.28;5012830;28;20076;-73
2022/04/16 07:16:56;;;;;;;30.85;19.80;;;;;;;9.34;100.00;103326.31;5012651;28;20446;-72
2022/04/16 07:19:22;;;;;;;30.30;20.27;;;;;;;9.40;100.00;103326.72;5011929;28;20038;-72
2022/04/16 07:21:47;;;;;;;32.05;20.42;;;;;;;9.44;100.00;103328.72;5013221;28;20046;-72
2022/04/16 07:24:12;;;;;;;32.50;20.73;;;;;;;9.51;100.00;103329.06;5013361;28;20153;-73
2022/04/16 07:26:38;;;;;;;29.13;20.25;;;;;;;9.63;100.00;103329.84;5012919;28;20049;-72
2022/04/16 07:29:03;;;;;;;33.97;21.17;;;;;;;9.76;100.00;103332.38;5012892;28;20104;-71
2022/04/16 07:31:29;;;;;;;32.58;20.80;;;;;;;9.87;100.00;103330.38;5013291;28;20026;-69
2022/04/16 07:33:54;;;;;;;28.92;20.70;;;;;;;9.98;100.00;103322.22;5012803;28;20544;-70
2022/04/16 07:36:19;;;;;;;32.83;21.83;;;;;;;10.10;100.00;103329.09;4993939;28;20149;-70
2022/04/16 07:38:45;;;;;;;27.27;19.83;;;;;;;10.21;100.00;103329.72;5006393;28;20466;-72
2022/04/16 07:41:10;;;;;;;27.75;20.42;;;;;;;10.31;100.00;103320.66;5013091;28;20099;-72
2022/04/16 07:43:36;;;;;;;27.40;20.13;;;;;;;10.38;100.00;103322.88;4993943;28;20021;-70
2022/04/16 07:46:01;;;;;;;34.90;20.67;;;;;;;10.39;100.00;103319.41;5012480;28;20540;-71
2022/04/16 07:48:27;;;;;;;33.78;21.35;;;;;;;10.46;100.00;103324.19;5010965;28;20033;-72
2022/04/16 07:50:52;;;;;;;29.92;19.13;;;;;;;10.52;100.00;103325.38;5012498;28;20034;-72
2022/04/16 07:53:17;;;;;;;30.00;21.23;;;;;;;10.56;100.00;103324.72;5013532;28;20029;-72
2022/04/16 07:55:42;;;;;;;32.00;21.42;;;;;;;10.67;100.00;103326.22;5012977;28;20101;-72
2022/04/16 07:58:08;;;;;;;33.25;21.02;;;;;;;10.74;100.00;103323.16;4990207;28;20454;-72
2022/04/16 08:00:33;;;;;;;35.50;21.02;;;;;;;10.81;100.00;103329.63;5012497;28;20038;-71
2022/04/16 08:02:58;;;;;;;37.72;24.25;;;;;;;10.79;100.00;103323.38;5013396;28;20026;-71
2022/04/16 08:05:24;;;;;;;31.60;21.98;;;;;;;10.83;100.00;103325.38;5012137;28;20072;-71
2022/04/16 08:07:49;;;;;;;31.75;21.25;;;;;;;10.91;100.00;103318.78;5012892;28;20421;-71
2022/04/16 08:10:15;;;;;;;30.27;21.35;;;;;;;10.99;100.00;103324.50;5013192;28;20484;-72
2022/04/16 08:12:40;;;;;;;28.92;19.88;;;;;;;11.06;100.00;103313.47;4995387;28;20029;-71
2022/04/16 08:15:06;;;;;;;29.63;19.20;;;;;;;11.18;100.00;103329.03;5012906;28;20034;-72
2022/04/16 08:17:32;;;;;;;27.58;18.98;;;;;;;11.34;100.00;103319.31;5012562;28;20065;-71
2022/04/16 08:19:58;;;;;;;28.25;19.23;;;;;;;11.53;100.00;103322.09;5011526;28;20053;-71
2022/04/16 08:22:23;;;;;;;28.35;19.33;;;;;;;11.70;99.69;103322.97;5012713;28;20458;-71
2022/04/16 08:27:34;;;;;;;29.23;19.30;;;;;;;11.77;99.06;103318.91;5002752;28;20074;-72
2022/04/16 08:29:59;;;;;;;27.58;19.20;;;;;;;11.80;99.45;103321.72;5012179;28;20474;-71
2022/04/16 08:32:25;;;;;;;26.00;18.55;;;;;;;11.93;99.31;103317.97;5011849;28;20045;-71
2022/04/16 08:34:50;;;;;;;28.60;19.88;;;;;;;12.01;99.02;103327.22;4998060;28;20422;-71
2022/04/16 08:37:15;;;;;;;27.05;19.42;;;;;;;12.02;97.86;103322.84;5015369;28;20037;-71
2022/04/16 08:39:41;;;;;;;27.88;18.50;;;;;;;12.10;97.32;103326.75;5011163;28;20096;-71
2022/04/16 08:42:06;;;;;;;27.88;18.17;;;;;;;12.23;97.17;103328.31;5011448;28;20053;-71
2022/04/16 08:44:32;;;;;;;28.42;19.05;;;;;;;12.40;96.42;103322.13;5012598;28;20030;-71
2022/04/16 08:46:59;;;;;;;25.90;18.15;;;;;;;12.47;96.74;103329.50;5011139;28;20052;-71
2022/04/16 08:49:25;;;;;;;27.55;18.65;;;;;;;12.52;95.27;103332.38;5012957;28;20489;-72
2022/04/16 08:51:50;;;;;;;29.58;18.05;;;;;;;12.67;97.10;103334.84;5012441;28;20026;-71
2022/04/16 08:54:16;;;;;;;27.85;17.40;;;;;;;12.75;95.52;103336.13;5013089;28;20172;-72
2022/04/16 08:56:41;;;;;;;25.40;17.52;;;;;;;12.79;94.23;103338.09;5012160;28;20033;-72
2022/04/16 08:59:06;;;;;;;25.88;16.85;;;;;;;12.81;95.03;103328.47;5011581;28;20057;-72
2022/04/16 09:01:34;;;;;;;23.27;16.48;;;;;;;12.85;92.66;103321.59;5011108;28;20109;-72
2022/04/16 09:03:59;;;;;;;24.85;17.25;;;;;;;13.03;92.06;103320.66;5013684;28;20486;-72
2022/04/16 09:06:25;;;;;;;20.60;15.57;;;;;;;13.15;92.09;103314.19;5011661;28;20033;-72
2022/04/16 09:08:50;;;;;;;19.73;15.23;;;;;;;13.12;90.30;103321.97;5011978;28;20022;-72
2022/04/16 09:11:20;;;;;;;23.98;16.30;;;;;;;13.33;91.56;103321.16;5011268;28;20033;-72
2022/04/16 09:13:48;;;;;;;22.42;16.20;;;;;;;13.51;91.79;103326.41;5012690;28;20112;-71
2022/04/16 09:16:14;;;;;;;21.48;15.95;;;;;;;13.57;89.36;103320.47;4993472;28;20066;-73
2022/04/16 09:18:50;;;;;;;21.60;15.25;;;;;;;13.72;90.14;103329.06;5010756;28;20064;-72
2022/04/16 09:21:17;;;;;;;22.23;15.32;;;;;;;13.83;90.44;103330.44;5011904;28;20389;-72
2022/04/16 09:23:47;;;;;;;21.05;15.30;;;;;;;13.88;90.01;103319.16;5011637;28;20617;-72
2022/04/16 09:26:32;;;;;;;22.63;15.63;;;;;;;14.05;89.49;103314.56;5010982;28;20044;-72
2022/04/16 09:29:07;;;;;;;19.38;14.20;;;;;;;14.41;88.45;103316.94;5011849;28;20104;-72
2022/04/16 09:31:35;;;;;;;22.65;16.17;;;;;;;14.44;87.36;103310.00;5019846;28;20030;-72
2022/04/16 09:34:01;;;;;;;24.15;16.83;;;;;;;14.45;86.37;103316.22;5015508;28;20030;-72
2022/04/16 09:36:27;;;;;;;23.10;15.73;;;;;;;14.62;86.97;103314.22;5015570;28;20030;-72
2022/04/16 09:39:06;;;;;;;19.50;15.65;;;;;;;14.85;86.76;103312.50;5014975;28;20452;-72
2022/04/16 09:41:34;;;;;;;20.50;15.60;;;;;;;15.09;85.73;103312.53;4998300;28;20052;-72
2022/04/16 09:44:00;;;;;;;20.30;15.75;;;;;;;15.23;86.40;103314.81;5014066;28;20030;-72
2022/04/16 09:46:30;;;;;;;22.48;16.25;;;;;;;15.29;82.78;103315.06;4997517;28;20030;-71
2022/04/16 09:49:03;;;;;;;19.55;15.02;;;;;;;15.41;85.83;103310.19;5004458;28;20018;-70
2022/04/16 09:51:34;;;;;;;22.23;16.60;;;;;;;15.28;83.02;103297.31;5015317;28;20504;-73
2022/04/16 09:54:03;;;;;;;18.42;14.40;;;;;;;15.59;82.97;103295.78;5014110;28;20057;-72
2022/04/16 09:56:34;;;;;;;18.50;13.73;;;;;;;15.72;82.23;103294.44;5014933;28;20026;-73
2022/04/16 09:59:02;;;;;;;18.83;13.60;;;;;;;15.72;79.29;103297.09;5015246;28;20478;-73
2022/04/16 10:01:28;;;;;;;21.85;14.18;;;;;;;15.73;78.35;103296.25;5012877;28;20084;-72
2022/04/16 10:03:54;;;;;;;19.58;15.18;;;;;;;15.67;78.97;103302.25;5015127;28;20041;-71
2022/04/16 10:06:20;;;;;;;17.55;14.35;;;;;;;15.81;80.52;103295.69;4996793;28;20124;-71
2022/04/16 10:08:49;;;;;;;19.02;15.10;;;;;;;15.91;78.82;103291.63;4997326;28;20030;-71
2022/04/16 10:11:20;;;;;;;18.00;13.65;;;;;;;16.09;76.76;103304.59;5013954;28;20548;-71
2022/04/16 10:13:56;;;;;;;41.85;14.25;;;;;;;16.26;77.27;103304.25;5015092;28;20382;-70
2022/04/16 10:16:34;;;;;;;21.63;12.85;;;;;;;16.33;75.19;103306.22;5014725;28;20021;-70
2022/04/16 10:18:59;;;;;;;16.83;13.27;;;;;;;16.40;75.87;103308.25;5014097;28;20030;-71
2022/04/16 10:21:33;;;;;;;19.33;12.57;;;;;;;16.51;74.45;103296.19;5014231;28;20049;-71
2022/04/16 10:24:01;;;;;;;14.40;11.70;;;;;;;16.55;72.10;103294.56;5013900;28;20048;-72
2022/04/16 10:26:37;;;;;;;27.90;11.70;;;;;;;16.86;76.17;103309.69;5013066;28;20033;-71
2022/04/16 10:29:03;;;;;;;24.80;12.00;;;;;;;16.95;72.97;103297.53;5017610;28;20030;-71
2022/04/16 10:31:31;;;;;;;18.98;10.98;;;;;;;17.11;72.13;103299.78;5018315;28;20034;-71
2022/04/16 10:34:08;;;;;;;20.80;10.95;;;;;;;17.29;70.95;103303.84;5015376;28;20041;-71
2022/04/16 10:36:38;;;;;;;14.90;10.90;;;;;;;17.18;70.50;103304.41;5022627;28;20030;-72
2022/04/16 10:39:23;;;;;;;14.07;10.70;;;;;;;17.47;70.29;103303.44;5017891;28;20046;-76
2022/04/16 10:41:54;;;;;;;10.43;8.35;;;;;;;17.52;65.82;103297.38;5016202;28;20029;-76
2022/04/16 10:44:20;;;;;;;17.05;10.65;;;;;;;17.73;69.87;103309.47;5016166;28;20117;-74
2022/04/16 10:46:48;;;;;;;56.20;11.07;;;;;;;17.72;66.74;103293.47;5012929;28;20108;-73
2022/04/16 10:49:15;;;;;;;11.65;9.43;;;;;;;17.60;62.44;103288.72;5015375;28;20026;-72
2022/04/16 10:51:41;;;;;;;28.25;9.02;;;;;;;17.73;63.57;103284.59;5012757;28;20037;-72
2022/04/16 10:54:11;;;;;;;11.98;7.78;;;;;;;18.11;61.84;103293.59;5011673;28;20032;-73
2022/04/16 10:56:40;;;;;;;20.88;9.00;;;;;;;18.30;60.43;103286.03;4994786;28;20080;-73
2022/04/16 10:59:08;;;;;;;12.35;9.05;;;;;;;18.38;63.84;103289.81;5011467;28;20023;-72
2022/04/16 11:01:34;;;;;;;19.05;9.10;;;;;;;18.35;60.36;103292.38;5015662;28;20021;-71
2022/04/16 11:04:12;;;;;;;9.63;7.10;;;;;;;18.51;59.00;103290.97;4999928;28;20045;-72
2022/04/16 11:06:44;;;;;;;12.73;8.70;;;;;;;18.38;57.25;103284.47;5014278;28;20488;-72
2022/04/16 11:09:20;;;;;;;8.88;7.32;;;;;;;18.40;57.31;103285.38;5010820;28;20018;-72
2022/04/16 11:11:50;;;;;;;20.60;7.60;;;;;;;18.58;56.40;103286.69;5010275;28;20033;-72
2022/04/16 11:14:16;;;;;;;12.43;8.18;;;;;;;18.51;56.94;103280.31;5011679;28;20025;-71
2022/04/16 11:16:46;;;;;;;9.95;6.90;;;;;;;18.69;54.30;103282.47;5010614;28;20026;-73
2022/04/16 11:19:15;;;;;;;7.22;5.88;;;;;;;18.69;50.93;103267.38;5012582;28;20493;-71
2022/04/16 11:21:42;;;;;;;7.32;6.18;;;;;;;18.92;55.51;103282.09;5003489;28;20605;-73
2022/04/16 11:24:08;;;;;;;9.38;6.65;;;;;;;18.99;52.53;103274.25;4991444;28;20045;-72